China, Michigan
Current Conditions -  °F | °C
As of 3:17 PM on Monday 24 Nov 2014 (Local Time) from KPHN Reporting Station
Overcast Overcast  
Wind Chill: 42°   Ceiling: 2600
Heat Index: 48°   Visibility: 10mi
Dew Point: 39°   Wind: 18mph
Humidity: 71%   Direction: 230°SW
Pressure: 29.25"   Gusts: 40mph
Location:  42.7808°N, 82.6288°W
Report Text: KPHN 242017Z AUTO 23016G35KT 10SM OVC026 09/04 A2925 RMK AO2
Loading
Personal Weather Stations






























Interactive Weather Map New forecast layout! Learn more

10-Day Weather Forecast

Advertisements
Track Severe Weather on mobile